createdAt,value
2018-09-16T00:00:16.596Z,5.85
2018-09-16T00:02:44.836Z,4.47
2018-09-16T00:05:13.043Z,5.40
2018-09-16T00:07:41.572Z,5.50
2018-09-16T00:10:09.477Z,4.87
2018-09-16T00:12:37.643Z,5.50
2018-09-16T00:15:06.022Z,5.12
2018-09-16T00:17:34.284Z,5.50
2018-09-16T00:20:02.509Z,5.60
2018-09-16T00:22:30.775Z,5.47
2018-09-16T00:24:59.083Z,6.17
2018-09-16T00:27:27.328Z,5.47
2018-09-16T00:29:55.559Z,5.95
2018-09-16T00:32:29.159Z,5.65
2018-09-16T00:34:57.340Z,5.70
2018-09-16T00:37:25.615Z,5.58
2018-09-16T00:39:53.902Z,5.90
2018-09-16T00:42:22.155Z,6.05
2018-09-16T00:44:50.388Z,6.22
2018-09-16T00:47:18.592Z,6.35
2018-09-16T00:49:46.964Z,6.15
2018-09-16T00:52:15.201Z,6.42
2018-09-16T00:54:43.371Z,6.97
2018-09-16T00:57:11.687Z,5.25
2018-09-16T00:59:39.882Z,5.80
2018-09-16T01:02:08.151Z,6.25
2018-09-16T01:04:36.380Z,5.42
2018-09-16T01:07:04.604Z,6.12
2018-09-16T01:09:32.820Z,5.62
2018-09-16T01:12:01.145Z,5.28
2018-09-16T01:14:29.485Z,6.85
2018-09-16T01:16:57.791Z,6.37
2018-09-16T01:19:28.149Z,6.22
2018-09-16T01:21:56.651Z,5.37
2018-09-16T01:24:24.899Z,6.40
2018-09-16T01:26:53.196Z,6.67
2018-09-16T01:29:21.399Z,5.55
2018-09-16T01:31:49.573Z,6.33
2018-09-16T01:34:17.861Z,6.12
2018-09-16T01:36:46.201Z,6.08
2018-09-16T01:39:14.494Z,6.92
2018-09-16T01:41:42.871Z,6.50
2018-09-16T01:44:11.149Z,6.67
2018-09-16T01:46:39.339Z,7.28
2018-09-16T01:49:07.509Z,7.65
2018-09-16T01:51:35.782Z,7.15
2018-09-16T01:54:04.111Z,7.15
2018-09-16T01:56:32.483Z,6.87
2018-09-16T01:59:00.874Z,7.37
2018-09-16T02:01:29.161Z,7.17
2018-09-16T02:03:57.559Z,7.40
2018-09-16T02:06:25.840Z,7.97
2018-09-16T02:08:54.036Z,8.55
2018-09-16T02:11:22.267Z,9.03
2018-09-16T02:13:50.635Z,7.75
2018-09-16T02:16:18.840Z,7.72
2018-09-16T02:18:47.218Z,7.08
2018-09-16T02:21:15.458Z,7.60
2018-09-16T02:23:43.668Z,8.45
2018-09-16T02:26:11.986Z,8.53
2018-09-16T02:28:40.323Z,8.43
2018-09-16T02:31:08.593Z,8.93
2018-09-16T02:33:36.873Z,8.43
2018-09-16T02:36:05.057Z,7.92
2018-09-16T02:38:33.256Z,9.15
2018-09-16T02:41:01.513Z,8.60
2018-09-16T02:43:29.812Z,7.78
2018-09-16T02:45:57.994Z,8.15
2018-09-16T02:48:26.309Z,8.15
2018-09-16T02:50:54.595Z,7.17
2018-09-16T02:53:22.851Z,8.15
2018-09-16T02:55:51.111Z,7.85
2018-09-16T02:58:19.276Z,8.10
2018-09-16T03:00:47.756Z,8.20
2018-09-16T03:03:16.152Z,8.35
2018-09-16T03:05:48.909Z,8.13
2018-09-16T03:08:17.984Z,8.45
2018-09-16T03:10:46.195Z,8.35
2018-09-16T03:13:15.100Z,7.92
2018-09-16T03:15:43.374Z,7.90
2018-09-16T03:18:11.972Z,7.45
2018-09-16T03:20:40.216Z,8.35
2018-09-16T03:23:08.496Z,8.10
2018-09-16T03:25:36.683Z,8.58
2018-09-16T03:28:05.065Z,8.65
2018-09-16T03:30:33.292Z,8.03
2018-09-16T03:33:01.505Z,7.42
2018-09-16T03:35:29.717Z,7.20
2018-09-16T03:37:57.964Z,8.15
2018-09-16T03:40:26.153Z,6.95
2018-09-16T03:42:54.339Z,8.15
2018-09-16T03:45:22.511Z,7.80
2018-09-16T03:47:50.718Z,7.83
2018-09-16T03:50:18.903Z,8.70
2018-09-16T03:52:47.131Z,7.37
2018-09-16T03:55:15.400Z,7.75
2018-09-16T03:57:43.699Z,8.55
2018-09-16T04:00:12.007Z,8.80
2018-09-16T04:02:40.248Z,8.25
2018-09-16T04:05:08.448Z,9.00
2018-09-16T04:07:36.728Z,9.20
2018-09-16T04:10:05.082Z,8.25
2018-09-16T04:12:33.439Z,8.60
2018-09-16T04:15:01.751Z,8.10
2018-09-16T04:17:29.991Z,8.90
2018-09-16T04:19:58.269Z,9.93
2018-09-16T04:22:26.511Z,9.60
2018-09-16T04:24:54.796Z,8.85
2018-09-16T04:27:22.967Z,9.20
2018-09-16T04:29:51.170Z,9.30
2018-09-16T04:32:19.601Z,9.30
2018-09-16T04:34:47.815Z,9.18
2018-09-16T04:37:16.122Z,9.58
2018-09-16T04:39:44.421Z,10.53
2018-09-16T04:42:12.645Z,10.60
2018-09-16T04:44:40.844Z,9.35
2018-09-16T04:47:09.100Z,10.50
2018-09-16T04:49:37.370Z,10.80
2018-09-16T04:52:05.557Z,10.08
2018-09-16T04:54:33.905Z,11.28
2018-09-16T04:57:02.216Z,11.12
2018-09-16T04:59:30.731Z,9.48
2018-09-16T05:01:58.956Z,9.40
2018-09-16T05:04:27.237Z,10.25
2018-09-16T05:06:55.528Z,9.58
2018-09-16T05:09:23.784Z,9.48
2018-09-16T05:11:52.191Z,9.98
2018-09-16T05:14:20.872Z,9.55
2018-09-16T05:16:49.226Z,10.85
2018-09-16T05:19:17.462Z,9.58
2018-09-16T05:21:45.739Z,9.65
2018-09-16T05:24:14.325Z,9.10
2018-09-16T05:26:42.691Z,9.50
2018-09-16T05:29:10.936Z,9.43
2018-09-16T05:31:39.161Z,9.20
2018-09-16T05:34:07.480Z,11.38
2018-09-16T05:36:35.734Z,8.48
2018-09-16T05:39:05.926Z,9.93
2018-09-16T05:41:34.348Z,9.55
2018-09-16T05:44:03.166Z,10.95
2018-09-16T05:46:31.520Z,10.38
2018-09-16T05:49:00.032Z,9.23
2018-09-16T05:51:29.017Z,10.45
2018-09-16T05:53:57.259Z,10.25
2018-09-16T05:56:25.452Z,11.43
2018-09-16T05:58:53.859Z,11.10
2018-09-16T06:01:22.083Z,9.78
2018-09-16T06:03:50.508Z,11.57
2018-09-16T06:06:19.149Z,11.73
2018-09-16T06:08:48.442Z,13.60
2018-09-16T06:11:17.057Z,12.15
2018-09-16T06:13:46.130Z,11.60
2018-09-16T06:16:15.109Z,12.70
2018-09-16T06:18:44.670Z,12.65
2018-09-16T06:21:12.903Z,12.33
2018-09-16T06:23:41.153Z,12.28
2018-09-16T06:26:09.361Z,10.93
2018-09-16T06:28:38.192Z,9.83
2018-09-16T06:31:06.605Z,10.78
2018-09-16T06:33:35.162Z,11.45
2018-09-16T06:36:03.441Z,10.35
2018-09-16T06:38:32.054Z,9.90
2018-09-16T06:41:00.479Z,11.40
2018-09-16T06:43:28.947Z,11.43
2018-09-16T06:45:57.304Z,10.65
2018-09-16T06:48:25.862Z,11.80
2018-09-16T06:50:54.244Z,11.00
2018-09-16T06:53:22.617Z,11.70
2018-09-16T06:55:51.200Z,11.00
2018-09-16T06:58:21.931Z,10.40
2018-09-16T07:00:50.627Z,10.65
2018-09-16T07:03:18.920Z,11.70
2018-09-16T07:05:47.452Z,11.18
2018-09-16T07:08:16.021Z,11.70
2018-09-16T07:10:44.793Z,9.60
2018-09-16T07:13:13.136Z,10.90
2018-09-16T07:15:44.204Z,11.35
2018-09-16T07:18:18.220Z,10.38
2018-09-16T07:20:46.773Z,10.03
2018-09-16T07:23:15.209Z,9.83
2018-09-16T07:25:44.502Z,8.80
2018-09-16T07:28:13.256Z,9.93
2018-09-16T07:30:41.682Z,10.35
2018-09-16T07:33:11.409Z,8.05
2018-09-16T07:35:40.824Z,9.55
2018-09-16T07:38:09.244Z,9.10
2018-09-16T07:40:38.158Z,9.18
2018-09-16T07:43:07.597Z,7.37
2018-09-16T07:45:40.903Z,6.42
2018-09-16T07:48:09.534Z,6.83
2018-09-16T07:50:38.132Z,6.00
2018-09-16T07:53:06.705Z,6.40
2018-09-16T07:55:36.067Z,5.35
2018-09-16T07:58:04.724Z,6.70
2018-09-16T08:00:33.223Z,5.78
2018-09-16T08:03:01.560Z,4.80
2018-09-16T08:05:31.326Z,5.95
2018-09-16T08:08:00.077Z,5.10
2018-09-16T08:10:28.463Z,4.25
2018-09-16T08:12:56.968Z,4.37
2018-09-16T08:15:25.479Z,4.87
2018-09-16T08:17:54.301Z,3.83
2018-09-16T08:20:22.905Z,3.90
2018-09-16T08:22:51.452Z,3.77
2018-09-16T08:25:19.756Z,4.75
2018-09-16T08:27:48.228Z,3.40
2018-09-16T08:30:16.497Z,3.77
2018-09-16T08:32:45.126Z,3.20
2018-09-16T08:35:13.733Z,3.72
2018-09-16T08:37:42.123Z,3.92
2018-09-16T08:40:10.536Z,4.17
2018-09-16T08:42:39.063Z,4.00
2018-09-16T08:45:07.431Z,4.15
2018-09-16T08:47:35.851Z,4.47
2018-09-16T08:50:04.220Z,4.45
2018-09-16T08:52:32.679Z,3.20
2018-09-16T08:55:00.952Z,3.77
2018-09-16T08:57:29.436Z,3.30
2018-09-16T08:59:57.774Z,3.55
2018-09-16T09:02:26.498Z,3.30
2018-09-16T09:04:55.527Z,3.20
2018-09-16T09:07:28.587Z,3.52
2018-09-16T09:09:58.486Z,3.25
2018-09-16T09:12:26.961Z,3.60
2018-09-16T09:14:55.350Z,4.40
2018-09-16T09:17:23.820Z,3.40
2018-09-16T09:19:52.195Z,3.75
2018-09-16T09:22:20.609Z,2.98
2018-09-16T09:24:48.923Z,2.80
2018-09-16T09:27:18.246Z,3.20
2018-09-16T09:29:46.542Z,3.00
2018-09-16T09:32:15.093Z,3.77
2018-09-16T09:34:44.161Z,3.10
2018-09-16T09:37:12.432Z,3.65
2018-09-16T09:39:40.731Z,2.50
2018-09-16T09:42:09.191Z,3.30
2018-09-16T09:44:37.943Z,3.20
2018-09-16T09:47:06.564Z,3.07
2018-09-16T09:49:34.964Z,3.03
2018-09-16T09:52:03.396Z,2.83
2018-09-16T09:54:32.541Z,3.17
2018-09-16T09:57:00.959Z,3.80
2018-09-16T09:59:30.378Z,3.20
2018-09-16T10:01:58.837Z,3.12
2018-09-16T10:04:27.113Z,3.12
2018-09-16T10:06:55.453Z,2.97
2018-09-16T10:09:23.833Z,2.70
2018-09-16T10:11:52.132Z,2.57
2018-09-16T10:14:20.581Z,2.60
2018-09-16T10:19:28.856Z,2.60
2018-09-16T10:21:57.313Z,2.93
2018-09-16T10:24:25.666Z,3.20
2018-09-16T10:26:54.272Z,2.30
2018-09-16T10:29:22.570Z,2.73
2018-09-16T10:31:50.983Z,2.27
2018-09-16T10:34:19.322Z,2.53
2018-09-16T10:36:47.942Z,2.13
2018-09-16T10:39:16.702Z,2.50
2018-09-16T10:41:45.422Z,2.47
2018-09-16T10:44:13.953Z,2.43
2018-09-16T10:46:42.329Z,2.67
2018-09-16T10:49:10.617Z,2.70
2018-09-16T10:51:38.885Z,2.40
2018-09-16T10:54:07.264Z,2.50
2018-09-16T10:56:35.612Z,2.83
2018-09-16T10:59:03.992Z,2.17
2018-09-16T11:01:32.469Z,2.40
2018-09-16T11:04:00.914Z,2.10
2018-09-16T11:06:29.745Z,2.37
2018-09-16T11:08:58.040Z,1.90
2018-09-16T11:11:26.638Z,1.90
2018-09-16T11:13:54.973Z,2.20
2018-09-16T11:16:23.465Z,2.57
2018-09-16T11:18:52.152Z,1.50
2018-09-16T11:21:20.553Z,3.10
2018-09-16T11:23:48.844Z,1.90
2018-09-16T11:26:17.447Z,1.60
2018-09-16T11:28:45.797Z,2.10
2018-09-16T11:31:14.206Z,2.00
2018-09-16T11:33:42.489Z,1.70
2018-09-16T11:36:10.820Z,2.03
2018-09-16T11:38:39.144Z,1.90
2018-09-16T11:41:07.731Z,1.40
2018-09-16T11:43:36.834Z,1.63
2018-09-16T11:46:05.064Z,2.27
2018-09-16T11:48:33.486Z,2.37
2018-09-16T11:51:01.860Z,1.90
2018-09-16T11:53:30.304Z,1.47
2018-09-16T11:55:58.694Z,2.60
2018-09-16T11:58:27.000Z,2.43
2018-09-16T12:00:55.382Z,2.60
2018-09-16T12:03:23.788Z,2.63
2018-09-16T12:05:52.101Z,2.47
2018-09-16T12:08:20.358Z,2.20
2018-09-16T12:10:48.815Z,2.20
2018-09-16T12:13:17.113Z,2.37
2018-09-16T12:15:45.431Z,2.40
2018-09-16T12:18:13.662Z,3.53
2018-09-16T12:20:42.043Z,2.63
2018-09-16T12:23:10.459Z,2.93
2018-09-16T12:25:38.745Z,2.80
2018-09-16T12:28:07.147Z,2.40
2018-09-16T12:30:35.609Z,2.87
2018-09-16T12:33:03.907Z,3.40
2018-09-16T12:35:32.428Z,2.70
2018-09-16T12:38:00.844Z,2.60
2018-09-16T12:40:29.165Z,3.20
2018-09-16T12:42:57.930Z,3.00
2018-09-16T12:45:26.482Z,2.83
2018-09-16T12:47:54.888Z,3.33
2018-09-16T12:50:23.281Z,3.97
2018-09-16T12:52:51.592Z,4.30
2018-09-16T12:55:20.026Z,4.60
2018-09-16T12:57:48.435Z,3.63
2018-09-16T13:00:21.472Z,4.20
2018-09-16T13:02:50.040Z,4.73
2018-09-16T13:05:18.273Z,4.10
2018-09-16T13:07:46.689Z,3.70
2018-09-16T13:10:15.042Z,3.73
2018-09-16T13:12:43.767Z,3.57
2018-09-16T13:15:12.139Z,3.77
2018-09-16T13:17:40.475Z,4.10
2018-09-16T13:20:08.853Z,4.60
2018-09-16T13:22:37.135Z,3.70
2018-09-16T13:25:05.655Z,3.80
2018-09-16T13:27:34.387Z,5.47
2018-09-16T13:30:02.703Z,4.90
2018-09-16T13:32:31.009Z,5.43
2018-09-16T13:34:59.368Z,4.77
2018-09-16T13:37:27.663Z,5.50
2018-09-16T13:39:55.941Z,5.50
2018-09-16T13:42:24.251Z,5.53
2018-09-16T13:44:52.593Z,5.20
2018-09-16T13:47:20.815Z,6.23
2018-09-16T13:49:49.818Z,5.60
2018-09-16T13:52:18.786Z,5.70
2018-09-16T13:54:47.139Z,4.97
2018-09-16T13:57:15.784Z,5.43
2018-09-16T13:59:44.067Z,5.70
2018-09-16T14:02:12.376Z,4.80
2018-09-16T14:04:40.921Z,4.60
2018-09-16T14:07:09.268Z,5.70
2018-09-16T14:09:37.627Z,5.60
2018-09-16T14:12:05.887Z,5.30
2018-09-16T14:14:35.935Z,5.00
2018-09-16T14:17:04.316Z,5.20
2018-09-16T14:19:32.821Z,4.70
2018-09-16T14:22:01.261Z,5.17
2018-09-16T14:24:35.581Z,4.50
2018-09-16T14:27:06.867Z,4.97
2018-09-16T14:29:50.015Z,5.40
2018-09-16T14:32:19.483Z,3.87
2018-09-16T14:34:47.757Z,4.40
2018-09-16T14:37:16.668Z,4.10
2018-09-16T14:39:44.950Z,4.60
2018-09-16T14:42:13.410Z,4.10
2018-09-16T14:44:42.366Z,4.97
2018-09-16T14:47:11.411Z,4.23
2018-09-16T14:49:40.002Z,4.10
2018-09-16T14:52:08.930Z,3.70
2018-09-16T14:54:41.053Z,4.50
2018-09-16T14:57:09.579Z,3.13
2018-09-16T14:59:38.247Z,3.40
2018-09-16T15:02:06.929Z,4.00
2018-09-16T15:04:35.272Z,3.93
2018-09-16T15:07:03.611Z,3.93
2018-09-16T15:09:32.125Z,3.90
2018-09-16T15:12:02.627Z,3.67
2018-09-16T15:14:32.394Z,3.30
2018-09-16T15:17:00.856Z,3.40
2018-09-16T15:19:29.804Z,3.20
2018-09-16T15:21:58.325Z,2.60
2018-09-16T15:24:37.719Z,3.03
2018-09-16T15:40:51.653Z,3.40
2018-09-16T15:43:21.090Z,3.23
2018-09-16T15:45:55.023Z,2.90
2018-09-16T15:48:23.464Z,3.40
2018-09-16T15:50:53.340Z,3.43
2018-09-16T15:53:24.395Z,3.40
2018-09-16T15:56:05.242Z,3.10
2018-09-16T15:58:33.872Z,3.40
2018-09-16T16:01:02.511Z,3.10
2018-09-16T16:03:31.618Z,3.10
2018-09-16T16:06:00.131Z,2.93
2018-09-16T16:08:39.372Z,2.90
2018-09-16T16:11:08.093Z,2.93
2018-09-16T16:13:36.430Z,2.60
2018-09-16T16:16:06.458Z,3.07
2018-09-16T16:18:34.781Z,2.67
2018-09-16T16:21:03.229Z,3.03
2018-09-16T16:23:31.589Z,2.53
2018-09-16T16:26:02.652Z,2.73
2018-09-16T16:28:35.934Z,2.97
2018-09-16T16:31:13.117Z,2.83
2018-09-16T16:33:50.299Z,3.40
2018-09-16T16:36:18.671Z,4.50
2018-09-16T16:38:47.039Z,3.37
2018-09-16T16:41:15.436Z,3.20
2018-09-16T16:43:46.694Z,4.03
2018-09-16T16:46:15.236Z,2.63
2018-09-16T16:48:43.686Z,2.73
2018-09-16T16:51:12.432Z,2.80
2018-09-16T16:53:41.503Z,2.90
2018-09-16T16:56:10.158Z,2.93
2018-09-16T16:58:39.069Z,2.70
2018-09-16T17:01:07.684Z,2.83
2018-09-16T17:03:36.167Z,2.60
2018-09-16T17:08:48.208Z,2.73
2018-09-16T17:11:16.654Z,3.03
2018-09-16T17:13:44.981Z,2.13
2018-09-16T17:16:13.432Z,2.80
2018-09-16T17:18:41.819Z,2.67
2018-09-16T17:21:10.225Z,2.50
2018-09-16T17:23:38.633Z,2.80
2018-09-16T17:26:06.838Z,3.10
2018-09-16T17:28:35.192Z,3.23
2018-09-16T17:31:06.804Z,2.37
2018-09-16T17:33:35.190Z,3.00
2018-09-16T17:36:03.846Z,4.43
2018-09-16T17:38:32.335Z,2.53
2018-09-16T17:41:01.953Z,2.73
2018-09-16T17:43:31.154Z,2.60
2018-09-16T17:46:00.386Z,3.30
2018-09-16T17:48:29.250Z,3.40
2018-09-16T17:50:57.952Z,3.27
2018-09-16T17:53:26.842Z,3.40
2018-09-16T17:55:55.802Z,3.07
2018-09-16T17:58:24.125Z,4.67
2018-09-16T18:00:53.973Z,4.53
2018-09-16T18:09:05.880Z,4.30
2018-09-16T18:11:36.918Z,4.62
2018-09-16T18:20:49.041Z,4.92
2018-09-16T18:23:20.946Z,5.62
2018-09-16T18:25:52.648Z,5.55
2018-09-16T18:28:32.051Z,5.15
2018-09-16T18:31:07.959Z,5.37
2018-09-16T18:36:47.420Z,5.33
2018-09-16T18:39:34.213Z,5.55
2018-09-16T18:46:40.018Z,4.92
2018-09-16T18:49:08.993Z,5.50
2018-09-16T18:51:42.057Z,5.35
2018-09-16T18:54:12.404Z,5.37
2018-09-16T18:56:41.249Z,5.30
2018-09-16T18:59:15.904Z,6.35
2018-09-16T19:03:04.773Z,4.90
2018-09-16T19:06:06.441Z,5.00
2018-09-16T19:08:36.582Z,4.90
2018-09-16T19:11:06.281Z,5.75
2018-09-16T19:35:19.002Z,7.47
2018-09-16T19:37:48.429Z,6.45
2018-09-16T19:40:24.393Z,7.08
2018-09-16T19:42:52.815Z,6.25
2018-09-16T19:45:31.260Z,7.00
2018-09-16T19:48:01.633Z,7.75
2018-09-16T19:50:30.081Z,6.70
2018-09-16T19:52:59.196Z,7.85
2018-09-16T19:55:28.248Z,7.42
2018-09-16T19:57:57.221Z,7.50
2018-09-16T20:00:26.080Z,7.45
2018-09-16T20:02:54.672Z,7.62
2018-09-16T20:05:23.583Z,7.45
2018-09-16T20:07:54.755Z,7.25
2018-09-16T20:10:23.867Z,7.90
2018-09-16T20:12:53.682Z,7.65
2018-09-16T20:15:22.509Z,7.50
2018-09-16T20:17:51.129Z,7.40
2018-09-16T20:20:19.617Z,7.90
2018-09-16T20:22:48.124Z,7.65
2018-09-16T20:25:16.550Z,7.22
2018-09-16T20:27:45.382Z,8.65
2018-09-16T20:30:13.776Z,9.45
2018-09-16T20:32:42.273Z,8.20
2018-09-16T20:35:10.773Z,8.55
2018-09-16T20:37:39.744Z,8.95
2018-09-16T20:40:08.311Z,7.95
2018-09-16T20:42:36.768Z,8.23
2018-09-16T20:45:07.181Z,7.22
2018-09-16T20:47:35.670Z,8.80
2018-09-16T20:50:04.371Z,7.80
2018-09-16T20:52:33.161Z,7.95
2018-09-16T20:55:01.355Z,7.08
2018-09-16T20:57:30.052Z,8.20
2018-09-16T20:59:59.397Z,9.28
2018-09-16T21:02:27.880Z,7.83
2018-09-16T21:04:56.281Z,7.70
2018-09-16T21:07:24.618Z,7.62
2018-09-16T21:09:53.013Z,7.35
2018-09-16T21:12:21.256Z,7.90
2018-09-16T21:14:49.722Z,7.58
2018-09-16T21:17:18.268Z,7.37
2018-09-16T21:19:46.860Z,7.30
2018-09-16T21:22:15.111Z,7.33
2018-09-16T21:24:43.348Z,7.65
2018-09-16T21:27:11.583Z,7.83
2018-09-16T21:29:39.785Z,7.67
2018-09-16T21:32:08.197Z,7.37
2018-09-16T21:34:36.972Z,7.08
2018-09-16T21:37:05.549Z,6.12
2018-09-16T21:39:34.170Z,7.05
2018-09-16T21:42:02.588Z,6.55
2018-09-16T21:44:30.943Z,7.05
2018-09-16T21:46:59.205Z,7.35
2018-09-16T21:49:27.749Z,7.00
2018-09-16T21:51:56.012Z,7.90
2018-09-16T21:54:24.178Z,6.20
2018-09-16T21:56:52.632Z,6.12
2018-09-16T21:59:20.860Z,7.12
2018-09-16T22:01:49.170Z,7.33
2018-09-16T22:04:17.369Z,6.65
2018-09-16T22:06:45.684Z,6.60
2018-09-16T22:09:13.886Z,7.50
2018-09-16T22:11:42.160Z,6.45
2018-09-16T22:14:10.305Z,6.40
2018-09-16T22:16:38.674Z,6.37
2018-09-16T22:19:06.948Z,6.42
2018-09-16T22:21:35.184Z,7.70
2018-09-16T22:24:03.387Z,7.10
2018-09-16T22:26:31.618Z,6.15
2018-09-16T22:29:00.105Z,6.53
2018-09-16T22:31:28.405Z,7.03
2018-09-16T22:33:56.821Z,6.20
2018-09-16T22:36:25.130Z,6.97
2018-09-16T22:38:53.370Z,6.58
2018-09-16T22:41:21.610Z,6.97
2018-09-16T22:43:49.848Z,6.85
2018-09-16T22:46:18.077Z,6.97
2018-09-16T22:48:46.624Z,7.20
2018-09-16T22:51:15.004Z,7.20
2018-09-16T22:53:43.396Z,8.65
2018-09-16T22:56:11.661Z,7.15
2018-09-16T22:58:39.937Z,7.83
2018-09-16T23:01:09.283Z,7.03
2018-09-16T23:03:37.622Z,8.00
2018-09-16T23:06:06.044Z,8.60
2018-09-16T23:08:34.360Z,7.70
2018-09-16T23:11:02.622Z,7.87
2018-09-16T23:13:30.873Z,7.37
2018-09-16T23:15:59.156Z,8.05
2018-09-16T23:18:27.473Z,8.43
2018-09-16T23:20:55.711Z,8.43
2018-09-16T23:23:24.013Z,8.45
2018-09-16T23:25:52.285Z,8.35
2018-09-16T23:28:20.623Z,8.60
2018-09-16T23:30:48.904Z,8.60
2018-09-16T23:33:17.792Z,8.83
2018-09-16T23:35:46.141Z,8.98
2018-09-16T23:38:14.671Z,8.78
2018-09-16T23:40:42.979Z,9.98
2018-09-16T23:43:11.161Z,8.25
2018-09-16T23:45:39.424Z,8.68
2018-09-16T23:48:07.689Z,9.35
2018-09-16T23:50:35.997Z,8.53
2018-09-16T23:53:04.260Z,8.55
2018-09-16T23:55:32.590Z,8.75
2018-09-16T23:58:00.834Z,10.05
